ブリスベン の空港の天気 - METARとTAF

ブリスベン空港 ( YBBN / BNE ) - オーストラリア クイーンズランド州ブリスベン
飛行場実況気象(Metar)
観測時間08/17 21:30 AEST (08/17 11:30 UTC)
風向・風速北 2m/s
視程10km以上
天気現象
なし
気温16℃
湿度82%
気圧1018hPa
METARYBBN 171130Z 01004KT CAVOK 16/13 Q1018 NOSIG
過去の天気等 Google飛行場航空写真 Wunderground天気予報

過去48時間のMETAR

飛行場予報(TAF)
発表時間: 8/17 21:12 AEST (8/17 11:12 UTC)
予報対象時間: 17日22時 AEST ~ 19日4時 AEST
風向・風速北北西 5m/s
視程10km以上
なし
18日1時 AEST から
風向・風速南 2m/s
視程10km以上
全天の4割程度の雲 雲底高度 460m
18日12時 AEST から
風向・風速東北東 4m/s
視程10km以上
少しの雲 雲底高度 760m
18日20時 AEST から
風向・風速北北西 4m/s
視程10km以上
少しの雲 雲底高度 610m
TAF YBBN 171112Z 1712/1818 34009KT CAVOK
FM171500 19004KT 9999 SCT015
FM180200 06008KT 9999 FEW025
FM181000 34008KT 9999 FEW020